Port Hedland International Airport
YPPD : now visible

Aeroporto :











RITROVATECI SU...

 
LOGIN :

Iscrizione | Disclaimer

   EN    FR    IT 

 









Sommario :    VFR   VFR Marginale   IFR   IFR Intensivo   IFR Molto Intensivo
Visibilità : 
Base nubi : 
>= 8 km
>= 3000ft
5 / 8 km
1000 / 3000 ft
1500m / 5 km
500 / 1000 ft
800 / 1500m
200 / 500 ft
< 800m
< 200 ft
Simboli :   Temporali  Nebbia  Neve Forte  Precipitazioni Forti  Vento > 20 kt






- Altitudine del aeroporto : 33 ft
- Codice IATA : PHE


YPPD - Port Hedland International

ULTIMO METAR :
  • 291400Z AUTO 27010KT 9999 // NCD 31/27 Q1002

METARs OBSOLETI :
  • 291330Z AUTO 28009KT 9999 // NCD 31/27 Q1002 RF00.0/000.0
  • 291300Z AUTO 28011KT 9999 // NCD 31/27 Q1002
  • 291200Z AUTO 27010KT 9999 // NCD 31/27 Q1001 RF00.0/000.0
  • 291130Z AUTO 30011KT 9999 // NCD 31/28 Q1001 RF00.0/000.0
  • 291100Z AUTO 31009KT 9999 // NCD 31/28 Q1001

TAF TAF YPPD
Valido dal 29 a 12 ore il 01 a 12 ore UTC


291103Z 2912/0112 29010KT CAVOK
FM291600 10008KT CAVOK
FM010500 32012KT CAVOK



MetMap, La meteo Aeronautica in un colpo d'occhio ! - Copyright ORBIFLY Dicembre 2007 - Disclaimer

ORBIFLY MET'MAP TEAM :

Programmazione e sviluppo : Alexandra Zaïnal
Concezione : Baudouin d'Aumeries
Aiuto per la programmazione : Marc-Olivier Méhu
Supporto tecnico e logistico : Manuel Goepfert
Aiuto per la traduzione : Arnaldo La Scala

Contatto : metmap@orbifly.com




FONTI E CREDITI :

   NOAA       Earth
Advisory